createdAt,value
2019-03-18T00:00:25.006Z,1.67
2019-03-18T00:02:53.652Z,1.73
2019-03-18T00:05:22.205Z,1.60
2019-03-18T00:07:50.754Z,1.77
2019-03-18T00:10:19.336Z,1.70
2019-03-18T00:12:47.947Z,1.63
2019-03-18T00:15:16.598Z,1.83
2019-03-18T00:17:45.211Z,1.90
2019-03-18T00:20:13.926Z,1.83
2019-03-18T00:22:42.540Z,1.93
2019-03-18T00:25:12.782Z,2.43
2019-03-18T00:27:41.405Z,2.07
2019-03-18T00:30:15.426Z,1.97
2019-03-18T00:32:44.046Z,2.00
2019-03-18T00:35:12.760Z,1.87
2019-03-18T00:37:41.321Z,1.90
2019-03-18T00:40:17.687Z,2.07
2019-03-18T00:42:46.166Z,2.00
2019-03-18T00:45:15.715Z,2.07
2019-03-18T00:47:44.426Z,2.37
2019-03-18T00:50:17.312Z,1.80
2019-03-18T00:52:46.015Z,1.57
2019-03-18T00:55:14.643Z,1.70
2019-03-18T00:57:43.258Z,1.80
2019-03-18T01:00:18.934Z,1.50
2019-03-18T01:02:49.793Z,1.30
2019-03-18T01:05:18.634Z,1.50
2019-03-18T01:07:47.248Z,1.40
2019-03-18T01:10:17.110Z,1.50
2019-03-18T01:12:45.712Z,1.23
2019-03-18T01:15:26.783Z,1.23
2019-03-18T01:17:44.924Z,1.50
2019-03-18T01:20:15.150Z,1.27
2019-03-18T01:22:43.686Z,1.40
2019-03-18T01:25:12.506Z,1.33
2019-03-18T01:27:41.416Z,1.30
2019-03-18T01:30:13.841Z,1.40
2019-03-18T01:32:42.383Z,1.20
2019-03-18T01:35:11.794Z,1.40
2019-03-18T01:37:40.423Z,1.57
2019-03-18T01:40:10.628Z,1.40
2019-03-18T01:42:39.175Z,1.60
2019-03-18T01:45:08.660Z,1.50
2019-03-18T01:47:37.245Z,1.43
2019-03-18T01:50:08.995Z,1.43
2019-03-18T01:52:37.571Z,1.50
2019-03-18T01:55:06.858Z,1.43
2019-03-18T01:57:35.434Z,1.50
2019-03-18T02:00:06.223Z,1.40
2019-03-18T02:02:34.802Z,1.40
2019-03-18T02:05:03.890Z,1.47
2019-03-18T02:07:32.470Z,1.57
2019-03-18T02:10:01.014Z,1.30
2019-03-18T02:12:29.591Z,1.63
2019-03-18T02:14:58.140Z,1.50
2019-03-18T02:17:26.719Z,1.50
2019-03-18T02:19:55.262Z,1.30
2019-03-18T02:22:23.776Z,1.47
2019-03-18T02:24:52.390Z,1.63
2019-03-18T02:27:20.970Z,1.63
2019-03-18T02:29:49.517Z,1.30
2019-03-18T02:32:18.111Z,1.40
2019-03-18T02:34:46.648Z,1.33
2019-03-18T02:37:15.227Z,1.30
2019-03-18T02:39:43.777Z,1.50
2019-03-18T02:42:12.354Z,1.00
2019-03-18T02:44:40.902Z,1.20
2019-03-18T02:47:09.550Z,1.20
2019-03-18T02:49:38.102Z,0.97
2019-03-18T02:52:06.821Z,1.20
2019-03-18T02:54:35.439Z,1.10
2019-03-18T02:57:04.101Z,1.17
2019-03-18T02:59:32.634Z,1.07
2019-03-18T03:02:01.219Z,1.23
2019-03-18T03:04:29.767Z,1.17
2019-03-18T03:06:58.397Z,1.10
2019-03-18T03:09:26.933Z,1.20
2019-03-18T03:11:55.527Z,1.20
2019-03-18T03:14:24.076Z,1.00
2019-03-18T03:16:52.628Z,1.20
2019-03-18T03:19:21.202Z,1.20
2019-03-18T03:21:49.770Z,1.30
2019-03-18T03:24:18.334Z,1.20
2019-03-18T03:26:46.804Z,1.20
2019-03-18T03:29:15.397Z,1.03
2019-03-18T03:31:43.994Z,1.17
2019-03-18T03:34:14.224Z,1.07
2019-03-18T03:36:42.714Z,1.33
2019-03-18T03:39:11.297Z,0.80
2019-03-18T03:41:39.844Z,1.20
2019-03-18T03:44:08.497Z,1.00
2019-03-18T03:46:42.989Z,1.10
2019-03-18T03:49:07.196Z,1.03
2019-03-18T03:51:35.738Z,1.10
2019-03-18T03:54:04.315Z,0.80
2019-03-18T03:56:32.931Z,1.10
2019-03-18T03:59:01.507Z,0.80
2019-03-18T04:01:30.137Z,0.80
2019-03-18T04:03:58.788Z,1.10
2019-03-18T04:06:27.391Z,0.97
2019-03-18T04:08:55.987Z,0.93
2019-03-18T04:11:24.572Z,0.90
2019-03-18T04:13:53.106Z,0.90
2019-03-18T04:16:21.654Z,0.97
2019-03-18T04:18:50.235Z,1.03
2019-03-18T04:21:18.811Z,0.80
2019-03-18T04:23:47.377Z,0.80
2019-03-18T04:26:15.916Z,0.90
2019-03-18T04:29:03.831Z,1.10
2019-03-18T04:31:32.447Z,0.90
2019-03-18T04:34:00.957Z,0.97
2019-03-18T04:36:29.515Z,0.90
2019-03-18T04:38:58.099Z,1.00
2019-03-18T04:41:26.641Z,0.90
2019-03-18T04:43:55.147Z,1.10
2019-03-18T04:46:23.691Z,1.10
2019-03-18T04:48:52.267Z,0.93
2019-03-18T04:51:20.808Z,0.90
2019-03-18T04:53:49.358Z,1.13
2019-03-18T04:56:17.938Z,1.10
2019-03-18T04:58:46.483Z,0.90
2019-03-18T05:01:15.062Z,1.27
2019-03-18T05:03:43.597Z,1.00
2019-03-18T05:06:12.188Z,1.10
2019-03-18T05:08:40.735Z,0.90
2019-03-18T05:11:09.308Z,3.87
2019-03-18T05:13:37.920Z,1.20
2019-03-18T05:16:06.503Z,1.27
2019-03-18T05:18:36.667Z,1.37
2019-03-18T05:21:05.599Z,1.23
2019-03-18T05:23:34.160Z,1.13
2019-03-18T05:26:02.737Z,1.10
2019-03-18T05:28:31.287Z,1.20
2019-03-18T05:30:59.869Z,1.07
2019-03-18T05:33:28.415Z,1.20
2019-03-18T05:35:57.038Z,0.90
2019-03-18T05:38:25.594Z,1.10
2019-03-18T05:40:54.170Z,1.10
2019-03-18T05:43:22.720Z,1.23
2019-03-18T05:45:51.295Z,1.27
2019-03-18T05:48:19.847Z,1.23
2019-03-18T05:50:48.433Z,2.10
2019-03-18T05:53:16.974Z,1.50
2019-03-18T05:55:45.578Z,1.40
2019-03-18T05:58:14.102Z,1.40
2019-03-18T06:00:42.679Z,1.23
2019-03-18T06:03:11.229Z,1.10
2019-03-18T06:05:39.700Z,1.10
2019-03-18T06:08:08.203Z,1.20
2019-03-18T06:10:36.776Z,1.10
2019-03-18T06:13:24.710Z,1.40
2019-03-18T06:15:53.301Z,1.20
2019-03-18T06:18:21.858Z,1.30
2019-03-18T06:20:50.417Z,1.40
2019-03-18T06:23:19.002Z,1.70
2019-03-18T06:25:47.589Z,1.40
2019-03-18T06:28:16.162Z,1.13
2019-03-18T06:30:44.718Z,1.10
2019-03-18T06:33:13.302Z,1.20
2019-03-18T06:35:41.865Z,1.43
2019-03-18T06:38:10.448Z,1.30
2019-03-18T06:40:39.075Z,1.10
2019-03-18T06:43:07.661Z,1.33
2019-03-18T06:45:36.214Z,1.60
2019-03-18T06:48:05.564Z,1.50
2019-03-18T06:50:34.172Z,1.20
2019-03-18T06:53:02.755Z,1.83
2019-03-18T06:55:31.306Z,1.43
2019-03-18T06:57:59.891Z,1.50
2019-03-18T07:00:28.453Z,1.20
2019-03-18T07:02:57.038Z,1.50
2019-03-18T07:05:25.598Z,1.33
2019-03-18T07:07:54.179Z,2.00
2019-03-18T07:10:22.672Z,1.47
2019-03-18T07:12:51.254Z,1.60
2019-03-18T07:15:19.807Z,1.60
2019-03-18T07:17:48.390Z,1.60
2019-03-18T07:20:16.950Z,1.40
2019-03-18T07:22:45.531Z,1.63
2019-03-18T07:25:15.394Z,1.50
2019-03-18T07:27:43.987Z,3.00
2019-03-18T07:30:14.495Z,1.57
2019-03-18T07:32:43.212Z,2.10
2019-03-18T07:35:11.841Z,1.90
2019-03-18T07:37:40.509Z,1.70
2019-03-18T07:40:14.058Z,2.13
2019-03-18T07:42:42.638Z,1.70
2019-03-18T07:45:15.452Z,1.50
2019-03-18T07:47:42.737Z,1.63
2019-03-18T07:50:12.830Z,1.90
2019-03-18T07:52:41.359Z,2.00
2019-03-18T07:55:10.051Z,1.80
2019-03-18T07:57:38.621Z,1.77
2019-03-18T08:00:14.635Z,1.60
2019-03-18T08:02:43.309Z,1.77
2019-03-18T08:05:11.894Z,1.60
2019-03-18T08:07:40.439Z,1.70
2019-03-18T08:10:15.018Z,1.50
2019-03-18T08:12:43.563Z,1.73
2019-03-18T08:15:13.089Z,1.67
2019-03-18T08:17:41.751Z,1.90
2019-03-18T08:20:13.399Z,1.50
2019-03-18T08:22:41.966Z,1.40
2019-03-18T08:25:11.389Z,1.50
2019-03-18T08:27:40.014Z,2.03
2019-03-18T08:30:15.824Z,1.60
2019-03-18T08:32:44.416Z,1.70
2019-03-18T08:35:13.002Z,1.40
2019-03-18T08:37:41.559Z,1.30
2019-03-18T08:40:11.675Z,1.43
2019-03-18T08:42:40.250Z,1.40
2019-03-18T08:45:12.916Z,1.37
2019-03-18T08:47:41.544Z,1.77
2019-03-18T08:50:12.508Z,1.30
2019-03-18T08:52:41.427Z,1.10
2019-03-18T08:55:11.464Z,1.27
2019-03-18T08:57:40.024Z,1.60
2019-03-18T09:00:13.415Z,1.40
2019-03-18T09:02:41.954Z,1.50
2019-03-18T09:05:13.355Z,1.40
2019-03-18T09:07:41.919Z,1.33
2019-03-18T09:10:17.809Z,1.40
2019-03-18T09:12:46.371Z,1.30
2019-03-18T09:15:15.084Z,1.20
2019-03-18T09:17:43.705Z,1.20
2019-03-18T09:20:20.171Z,1.10
2019-03-18T09:22:48.743Z,1.40
2019-03-18T09:25:17.401Z,1.63
2019-03-18T09:27:45.971Z,1.37
2019-03-18T09:30:19.672Z,1.30
2019-03-18T09:32:48.299Z,1.40
2019-03-18T09:35:17.918Z,1.50
2019-03-18T09:37:46.546Z,1.23
2019-03-18T09:40:18.424Z,1.17
2019-03-18T09:42:46.943Z,1.17
2019-03-18T09:45:16.569Z,1.20
2019-03-18T09:47:45.185Z,1.70
2019-03-18T09:50:14.117Z,1.60
2019-03-18T09:52:42.687Z,1.50
2019-03-18T09:55:11.440Z,1.60
2019-03-18T09:57:40.010Z,1.37
2019-03-18T10:00:12.450Z,1.57
2019-03-18T10:02:41.098Z,1.10
2019-03-18T10:05:09.820Z,1.30
2019-03-18T10:07:38.380Z,1.33
2019-03-18T10:10:09.503Z,1.30
2019-03-18T10:12:38.060Z,1.40
2019-03-18T10:15:18.291Z,1.37
2019-03-18T10:17:46.839Z,1.20
2019-03-18T10:20:15.497Z,1.30
2019-03-18T10:22:44.135Z,1.40
2019-03-18T10:25:12.721Z,1.33
2019-03-18T10:27:41.357Z,1.27
2019-03-18T10:30:16.402Z,1.43
2019-03-18T10:32:44.968Z,1.53
2019-03-18T10:35:13.635Z,1.47
2019-03-18T10:37:42.259Z,1.50
2019-03-18T10:40:14.433Z,1.30
2019-03-18T10:42:43.143Z,1.20
2019-03-18T10:45:13.744Z,1.13
2019-03-18T10:47:42.297Z,1.20
2019-03-18T10:50:16.385Z,1.23
2019-03-18T10:52:44.946Z,1.17
2019-03-18T10:55:13.673Z,1.90
2019-03-18T10:57:42.227Z,1.40
2019-03-18T11:00:15.884Z,1.10
2019-03-18T11:02:45.187Z,1.50
2019-03-18T11:05:14.714Z,1.60
2019-03-18T11:07:43.267Z,1.00
2019-03-18T11:10:13.400Z,1.33
2019-03-18T11:12:42.052Z,1.30
2019-03-18T11:15:12.587Z,1.33
2019-03-18T11:17:41.143Z,1.30
2019-03-18T11:20:16.454Z,1.70
2019-03-18T11:22:45.024Z,1.60
2019-03-18T11:25:14.947Z,1.20
2019-03-18T11:27:43.578Z,1.30
2019-03-18T11:30:14.547Z,1.30
2019-03-18T11:32:43.243Z,1.17
2019-03-18T11:35:12.074Z,1.70
2019-03-18T11:37:40.701Z,1.50
2019-03-18T11:40:12.367Z,1.40
2019-03-18T11:42:40.932Z,1.57
2019-03-18T11:45:11.971Z,1.40
2019-03-18T11:47:40.520Z,1.40
2019-03-18T11:50:14.007Z,1.37
2019-03-18T11:52:42.629Z,1.60
2019-03-18T11:55:19.055Z,1.80
2019-03-18T11:57:47.639Z,1.43
2019-03-18T12:00:21.411Z,1.50
2019-03-18T12:02:49.969Z,1.40
2019-03-18T12:05:26.512Z,1.50
2019-03-18T12:07:55.144Z,1.50
2019-03-18T12:10:25.544Z,1.30
2019-03-18T12:12:54.163Z,1.67
2019-03-18T12:15:27.339Z,1.40
2019-03-18T12:17:56.043Z,1.40
2019-03-18T12:20:25.800Z,1.30
2019-03-18T12:22:54.660Z,1.47
2019-03-18T12:25:23.247Z,1.50
2019-03-18T12:27:51.806Z,1.57
2019-03-18T12:30:21.535Z,1.40
2019-03-18T12:32:50.174Z,1.30
2019-03-18T12:35:18.895Z,1.40
2019-03-18T12:37:47.680Z,1.30
2019-03-18T12:40:17.240Z,1.30
2019-03-18T12:42:46.027Z,1.00
2019-03-18T12:45:19.549Z,1.03
2019-03-18T12:47:48.239Z,1.00
2019-03-18T12:50:36.912Z,1.60
2019-03-18T12:52:53.892Z,1.70
2019-03-18T12:55:22.491Z,1.13
2019-03-18T12:57:51.127Z,1.10
2019-03-18T13:00:33.322Z,1.20
2019-03-18T13:03:02.017Z,1.00
2019-03-18T13:05:30.679Z,1.50
2019-03-18T13:07:59.492Z,4.30
2019-03-18T13:10:28.146Z,1.10
2019-03-18T13:12:56.643Z,1.83
2019-03-18T13:15:25.231Z,1.30
2019-03-18T13:17:53.783Z,1.20
2019-03-18T13:20:23.226Z,0.90
2019-03-18T13:22:53.888Z,1.27
2019-03-18T13:25:22.015Z,1.10
2019-03-18T13:27:50.639Z,1.00
2019-03-18T13:30:21.433Z,0.97
2019-03-18T13:32:50.057Z,0.80
2019-03-18T13:35:18.644Z,0.77
2019-03-18T13:37:47.267Z,0.70
2019-03-18T13:40:17.861Z,0.80
2019-03-18T13:42:46.415Z,0.70
2019-03-18T13:45:17.513Z,0.70
2019-03-18T13:47:46.064Z,1.20
2019-03-18T13:50:18.862Z,1.17
2019-03-18T13:52:47.502Z,0.83
2019-03-18T13:55:16.120Z,0.70
2019-03-18T13:57:44.860Z,0.77
2019-03-18T14:00:15.235Z,1.10
2019-03-18T14:02:43.911Z,0.70
2019-03-18T14:05:12.542Z,0.90
2019-03-18T14:07:41.484Z,1.10
2019-03-18T14:10:14.801Z,1.13
2019-03-18T14:12:43.541Z,1.40
2019-03-18T14:15:25.717Z,1.27
2019-03-18T14:17:54.357Z,1.30
2019-03-18T14:20:28.934Z,1.20
2019-03-18T14:22:57.577Z,1.17
2019-03-18T14:25:26.118Z,0.90
2019-03-18T14:27:54.719Z,1.20
2019-03-18T14:30:23.825Z,0.97
2019-03-18T14:32:52.477Z,1.00
2019-03-18T14:35:21.880Z,1.13
2019-03-18T14:37:50.755Z,0.90
2019-03-18T14:40:23.924Z,0.73
2019-03-18T14:42:52.538Z,0.83
2019-03-18T14:45:22.144Z,0.40
2019-03-18T14:47:50.736Z,0.47
2019-03-18T14:50:19.850Z,0.60
2019-03-18T14:52:48.670Z,0.67
2019-03-18T14:55:19.224Z,0.57
2019-03-18T14:57:47.966Z,0.47
2019-03-18T15:00:27.424Z,0.50
2019-03-18T15:02:56.041Z,0.80
2019-03-18T15:05:24.707Z,0.70
2019-03-18T15:07:53.366Z,0.90
2019-03-18T15:10:26.274Z,0.90
2019-03-18T15:12:54.938Z,1.10
2019-03-18T15:15:23.570Z,1.30
2019-03-18T15:17:52.154Z,1.10
2019-03-18T15:20:24.640Z,0.90
2019-03-18T15:22:53.300Z,1.20
2019-03-18T15:25:24.464Z,1.10
2019-03-18T15:27:53.054Z,1.00
2019-03-18T15:30:21.736Z,1.13
2019-03-18T15:32:50.416Z,1.20
2019-03-18T15:35:19.042Z,0.90
2019-03-18T15:37:47.686Z,1.40
2019-03-18T15:40:18.551Z,0.87
2019-03-18T15:42:47.178Z,0.93
2019-03-18T15:45:17.987Z,1.37
2019-03-18T15:47:46.534Z,1.00
2019-03-18T15:50:19.243Z,1.30
2019-03-18T15:52:47.788Z,1.50
2019-03-18T15:55:16.550Z,1.47
2019-03-18T15:57:45.105Z,1.60
2019-03-18T16:00:19.136Z,1.53
2019-03-18T16:02:47.686Z,1.33
2019-03-18T16:05:16.350Z,1.57
2019-03-18T16:07:44.974Z,1.30
2019-03-18T16:10:20.623Z,1.53
2019-03-18T16:12:49.273Z,1.43
2019-03-18T16:15:18.366Z,1.83
2019-03-18T16:17:47.102Z,1.90
2019-03-18T16:20:17.321Z,1.90
2019-03-18T16:22:45.892Z,1.87
2019-03-18T16:25:14.542Z,1.53
2019-03-18T16:27:43.033Z,1.60
2019-03-18T16:30:14.427Z,2.30
2019-03-18T16:32:43.049Z,2.20
2019-03-18T16:35:15.689Z,3.80
2019-03-18T16:37:43.628Z,1.80
2019-03-18T16:40:17.610Z,2.20
2019-03-18T16:42:46.167Z,1.60
2019-03-18T16:45:15.791Z,1.40
2019-03-18T16:47:44.426Z,2.00
2019-03-18T16:50:32.476Z,1.93
2019-03-18T16:53:01.044Z,1.73
2019-03-18T16:55:29.676Z,2.07
2019-03-18T16:57:58.297Z,1.43
2019-03-18T17:00:28.003Z,1.70
2019-03-18T17:02:56.687Z,2.00
2019-03-18T17:05:25.275Z,1.90
2019-03-18T17:07:54.376Z,2.20
2019-03-18T17:10:23.331Z,2.07
2019-03-18T17:12:51.877Z,1.93
2019-03-18T17:15:21.260Z,2.03
2019-03-18T17:17:49.891Z,2.40
2019-03-18T17:20:18.516Z,1.90
2019-03-18T17:22:49.959Z,1.90
2019-03-18T17:25:23.262Z,1.80
2019-03-18T17:27:51.861Z,1.60
2019-03-18T17:30:21.061Z,2.23
2019-03-18T17:32:49.724Z,1.80
2019-03-18T17:35:18.362Z,2.53
2019-03-18T17:37:46.950Z,1.80
2019-03-18T17:40:16.548Z,1.80
2019-03-18T17:42:45.219Z,1.87
2019-03-18T17:45:15.990Z,1.70
2019-03-18T17:47:44.706Z,1.63
2019-03-18T17:50:18.572Z,1.67
2019-03-18T17:52:47.227Z,1.40
2019-03-18T17:55:15.858Z,1.70
2019-03-18T17:57:44.513Z,1.80
2019-03-18T18:00:18.883Z,1.93
2019-03-18T18:02:47.532Z,1.90
2019-03-18T18:05:16.166Z,2.03
2019-03-18T18:07:44.772Z,1.70
2019-03-18T18:10:13.482Z,1.80
2019-03-18T18:12:42.064Z,2.00
2019-03-18T18:15:13.632Z,1.67
2019-03-18T18:17:42.652Z,1.70
2019-03-18T18:20:15.343Z,1.80
2019-03-18T18:22:44.252Z,2.00
2019-03-18T18:25:14.001Z,2.00
2019-03-18T18:27:42.650Z,1.87
2019-03-18T18:30:13.179Z,2.00
2019-03-18T18:32:41.766Z,2.20
2019-03-18T18:35:11.394Z,1.80
2019-03-18T18:37:40.032Z,1.93
2019-03-18T18:40:22.880Z,2.33
2019-03-18T18:42:51.511Z,1.70
2019-03-18T18:45:22.583Z,2.00
2019-03-18T18:47:51.176Z,1.80
2019-03-18T18:50:19.817Z,1.87
2019-03-18T18:52:48.351Z,1.77
2019-03-18T18:55:16.943Z,1.93
2019-03-18T18:57:45.512Z,2.20
2019-03-18T19:00:21.564Z,2.10
2019-03-18T19:02:50.263Z,1.70
2019-03-18T19:05:19.607Z,2.00
2019-03-18T19:07:48.158Z,2.43
2019-03-18T19:10:20.401Z,2.50
2019-03-18T19:12:49.047Z,2.10
2019-03-18T19:15:38.711Z,3.20
2019-03-18T19:18:07.355Z,2.23
2019-03-18T19:20:35.936Z,3.30
2019-03-18T19:23:04.574Z,2.33
2019-03-18T19:25:33.151Z,2.40
2019-03-18T19:28:01.787Z,2.80
2019-03-18T19:30:30.461Z,2.70
2019-03-18T19:32:59.011Z,2.70
2019-03-18T19:35:28.815Z,2.60
2019-03-18T19:37:57.567Z,2.30
2019-03-18T19:40:26.230Z,2.37
2019-03-18T19:42:55.071Z,2.40
2019-03-18T19:45:23.662Z,2.67
2019-03-18T19:47:53.434Z,2.40
2019-03-18T19:50:25.307Z,2.20
2019-03-18T19:52:54.008Z,2.20
2019-03-18T19:55:22.672Z,2.70
2019-03-18T19:57:51.232Z,2.50
2019-03-18T20:00:30.376Z,2.90
2019-03-18T20:02:58.936Z,2.40
2019-03-18T20:05:27.686Z,3.10
2019-03-18T20:07:56.278Z,2.80
2019-03-18T20:10:24.846Z,2.50
2019-03-18T20:12:53.429Z,2.67
2019-03-18T20:15:22.072Z,2.83
2019-03-18T20:17:50.732Z,3.10
2019-03-18T20:20:20.568Z,3.40
2019-03-18T20:22:49.110Z,3.73
2019-03-18T20:25:17.768Z,3.30
2019-03-18T20:27:46.324Z,3.27
2019-03-18T20:30:19.912Z,3.20
2019-03-18T20:32:48.470Z,2.87
2019-03-18T20:35:18.304Z,3.10
2019-03-18T20:37:46.870Z,2.90
2019-03-18T20:40:16.295Z,3.00
2019-03-18T20:42:45.216Z,2.93
2019-03-18T20:45:18.681Z,3.00
2019-03-18T20:47:47.348Z,2.70
2019-03-18T20:50:20.085Z,3.00
2019-03-18T20:52:48.653Z,2.90
2019-03-18T20:55:17.387Z,3.87
2019-03-18T20:57:46.128Z,3.57
2019-03-18T21:00:21.922Z,3.00
2019-03-18T21:02:50.526Z,3.10
2019-03-18T21:05:19.158Z,3.47
2019-03-18T21:07:47.741Z,3.90
2019-03-18T21:10:19.711Z,3.20
2019-03-18T21:12:48.457Z,3.27
2019-03-18T21:15:17.946Z,2.90
2019-03-18T21:17:46.785Z,3.10
2019-03-18T21:20:20.044Z,3.60
2019-03-18T21:22:48.698Z,3.57
2019-03-18T21:25:17.256Z,3.50
2019-03-18T21:27:45.851Z,3.67
2019-03-18T21:30:19.420Z,3.23
2019-03-18T21:32:48.125Z,3.50
2019-03-18T21:35:16.663Z,2.83
2019-03-18T21:37:45.445Z,2.90
2019-03-18T21:40:17.822Z,2.80
2019-03-18T21:42:46.517Z,2.83
2019-03-18T21:45:20.077Z,2.37
2019-03-18T21:47:48.727Z,2.30
2019-03-18T21:50:17.727Z,2.10
2019-03-18T21:52:46.320Z,2.60
2019-03-18T21:55:16.088Z,2.23
2019-03-18T21:57:44.815Z,2.30
2019-03-18T22:00:19.255Z,3.00
2019-03-18T22:02:47.932Z,2.33
2019-03-18T22:05:16.626Z,3.10
2019-03-18T22:07:45.274Z,4.70
2019-03-18T22:10:15.579Z,2.57
2019-03-18T22:12:44.166Z,2.07
2019-03-18T22:15:13.866Z,2.20
2019-03-18T22:17:42.621Z,2.23
2019-03-18T22:20:15.477Z,1.97
2019-03-18T22:22:44.201Z,2.13
2019-03-18T22:25:13.792Z,2.07
2019-03-18T22:27:42.656Z,2.40
2019-03-18T22:30:18.274Z,2.37
2019-03-18T22:32:47.179Z,2.73
2019-03-18T22:35:15.837Z,2.03
2019-03-18T22:37:44.408Z,2.53
2019-03-18T22:40:14.998Z,2.30
2019-03-18T22:42:43.628Z,2.40
2019-03-18T22:45:16.253Z,2.67
2019-03-18T22:47:44.876Z,2.33
2019-03-18T22:50:14.300Z,2.43
2019-03-18T22:52:43.752Z,2.70
2019-03-18T22:55:13.474Z,3.77
2019-03-18T22:57:42.227Z,3.17
2019-03-18T23:00:22.457Z,3.30
2019-03-18T23:02:52.711Z,3.33
2019-03-18T23:05:21.365Z,3.07
2019-03-18T23:07:49.987Z,2.87
2019-03-18T23:10:18.648Z,2.90
2019-03-18T23:12:47.212Z,3.10
2019-03-18T23:15:15.800Z,3.07
2019-03-18T23:17:44.368Z,3.43
2019-03-18T23:20:13.026Z,3.70
2019-03-18T23:22:41.580Z,3.70
2019-03-18T23:25:10.172Z,3.33
2019-03-18T23:27:38.723Z,2.97
2019-03-18T23:30:12.105Z,3.00
2019-03-18T23:32:40.668Z,3.47
2019-03-18T23:35:09.411Z,3.50
2019-03-18T23:37:38.041Z,3.30
2019-03-18T23:40:27.488Z,2.87
2019-03-18T23:42:56.092Z,2.97
2019-03-18T23:45:24.611Z,3.40
2019-03-18T23:47:53.177Z,3.60
2019-03-18T23:50:21.742Z,3.60
2019-03-18T23:52:50.292Z,3.40
2019-03-18T23:55:20.086Z,3.63
2019-03-18T23:57:48.759Z,3.50
